DLH5EF EDDF-EGBB
Flight info
| Callsign | DLH5EF |
|---|---|
| Flight time | N/A |
| Altitude | 34000 |
| Route | OBOKA3W OBOKA Z29 TORNU DCT BATAK DCT GALSO Q63 ERING L179 LAM L610 HEMEL |
| Aircraft | A320/M-SDE3FGHIRWY/LB1 |
Departure
| Time | N/A |
|---|---|
| Airport | Frankfurt Main Airport (EDDF) |
Arrival
| Time | 2026-05-05 17:26 |
|---|---|
| Airport | Birmingham Airport (EGBB) |
| Time | Latitude | Longitude | Altitude | Speed | Heading |
|---|---|---|---|---|---|
| 2026-05-05 17:07 | 51.64203 | 0.27765 | 30679 ft | 428 kts | 270° |
| 2026-05-05 17:08 | 51.64355 | 0.23012 | 30111 ft | 424 kts | 270° |
| 2026-05-05 17:08 | 51.64557 | 0.18377 | 29488 ft | 423 kts | 275° |
| 2026-05-05 17:08 | 51.65184 | 0.13711 | 28924 ft | 420 kts | 285° |
| 2026-05-05 17:08 | 51.66212 | 0.09488 | 28372 ft | 418 kts | 292° |
| 2026-05-05 17:09 | 51.67434 | 0.05189 | 27799 ft | 414 kts | 292° |
| 2026-05-05 17:09 | 51.68552 | 0.01236 | 27291 ft | 411 kts | 292° |
| 2026-05-05 17:09 | 51.69726 | -0.02945 | 26785 ft | 407 kts | 292° |
| 2026-05-05 17:09 | 51.70875 | -0.07054 | 26261 ft | 403 kts | 292° |
| 2026-05-05 17:10 | 51.71990 | -0.11044 | 25757 ft | 400 kts | 292° |
| 2026-05-05 17:10 | 51.73127 | -0.15118 | 25257 ft | 396 kts | 292° |
| 2026-05-05 17:10 | 51.74251 | -0.19148 | 24742 ft | 392 kts | 293° |
| 2026-05-05 17:10 | 51.75312 | -0.22956 | 24278 ft | 388 kts | 293° |
| 2026-05-05 17:11 | 51.76412 | -0.26911 | 23791 ft | 384 kts | 293° |
| 2026-05-05 17:11 | 51.77494 | -0.30824 | 23298 ft | 380 kts | 293° |
| 2026-05-05 17:11 | 51.78565 | -0.34696 | 22781 ft | 375 kts | 293° |
| 2026-05-05 17:11 | 51.79740 | -0.38412 | 22324 ft | 370 kts | 302° |
| 2026-05-05 17:12 | 51.81303 | -0.41684 | 21888 ft | 367 kts | 312° |
| 2026-05-05 17:12 | 51.83225 | -0.44439 | 21416 ft | 374 kts | 322° |
| 2026-05-05 17:12 | 51.85434 | -0.46686 | 20817 ft | 375 kts | 328° |
| 2026-05-05 17:12 | 51.87673 | -0.48850 | 20293 ft | 374 kts | 328° |
| 2026-05-05 17:13 | 51.89902 | -0.51013 | 19767 ft | 373 kts | 327° |
| 2026-05-05 17:13 | 51.92125 | -0.53172 | 19240 ft | 372 kts | 328° |
| 2026-05-05 17:13 | 51.94342 | -0.55333 | 18716 ft | 371 kts | 328° |
| 2026-05-05 17:13 | 51.96553 | -0.57492 | 18190 ft | 371 kts | 328° |
| 2026-05-05 17:14 | 51.98764 | -0.59652 | 17619 ft | 370 kts | 328° |
| 2026-05-05 17:14 | 52.00964 | -0.61803 | 17109 ft | 368 kts | 328° |
| 2026-05-05 17:14 | 52.03151 | -0.63946 | 16601 ft | 366 kts | 328° |
| 2026-05-05 17:14 | 52.05327 | -0.66082 | 16087 ft | 365 kts | 328° |
| 2026-05-05 17:15 | 52.07494 | -0.68211 | 15588 ft | 363 kts | 327° |
| 2026-05-05 17:15 | 52.09627 | -0.70307 | 15073 ft | 362 kts | 327° |
| 2026-05-05 17:15 | 52.11780 | -0.72423 | 14567 ft | 361 kts | 327° |
| 2026-05-05 17:15 | 52.13924 | -0.74530 | 14093 ft | 359 kts | 327° |
| 2026-05-05 17:16 | 52.16049 | -0.76623 | 13695 ft | 354 kts | 327° |
| 2026-05-05 17:16 | 52.18144 | -0.78692 | 13191 ft | 351 kts | 327° |
| 2026-05-05 17:16 | 52.20233 | -0.80759 | 12637 ft | 349 kts | 327° |
| 2026-05-05 17:16 | 52.22269 | -0.82883 | 12090 ft | 347 kts | 321° |
| 2026-05-05 17:17 | 52.23949 | -0.85645 | 11618 ft | 341 kts | 306° |
| 2026-05-05 17:17 | 52.25111 | -0.88976 | 11161 ft | 336 kts | 292° |
| 2026-05-05 17:17 | 52.25758 | -0.92638 | 10619 ft | 335 kts | 283° |
| 2026-05-05 17:17 | 52.26259 | -0.96276 | 10305 ft | 328 kts | 283° |
| 2026-05-05 17:18 | 52.26746 | -0.99833 | 10179 ft | 315 kts | 283° |
| 2026-05-05 17:18 | 52.27215 | -1.03261 | 10064 ft | 303 kts | 283° |
| 2026-05-05 17:18 | 52.27666 | -1.06564 | 9940 ft | 292 kts | 283° |
| 2026-05-05 17:18 | 52.28102 | -1.09750 | 9738 ft | 285 kts | 283° |
| 2026-05-05 17:19 | 52.28537 | -1.12930 | 9375 ft | 282 kts | 283° |
| 2026-05-05 17:19 | 52.28957 | -1.16004 | 9000 ft | 280 kts | 283° |
| 2026-05-05 17:19 | 52.29379 | -1.19102 | 8626 ft | 278 kts | 283° |
| 2026-05-05 17:19 | 52.29794 | -1.22171 | 8238 ft | 276 kts | 283° |
| 2026-05-05 17:20 | 52.30204 | -1.25233 | 7811 ft | 276 kts | 283° |
| 2026-05-05 17:20 | 52.30618 | -1.28308 | 7377 ft | 277 kts | 283° |
| 2026-05-05 17:20 | 52.31033 | -1.31386 | 6959 ft | 277 kts | 283° |
| 2026-05-05 17:20 | 52.31445 | -1.34453 | 6555 ft | 276 kts | 283° |
| 2026-05-05 17:21 | 52.31856 | -1.37522 | 6121 ft | 276 kts | 283° |
| 2026-05-05 17:21 | 52.32265 | -1.40578 | 5710 ft | 275 kts | 283° |
| 2026-05-05 17:21 | 52.32670 | -1.43620 | 5296 ft | 272 kts | 284° |
| 2026-05-05 17:22 | 52.33460 | -1.49601 | 3981 ft | 266 kts | 284° |
| 2026-05-05 17:22 | 52.33849 | -1.52547 | 3363 ft | 263 kts | 284° |
| 2026-05-05 17:22 | 52.34218 | -1.55369 | 3113 ft | 245 kts | 284° |
| 2026-05-05 17:22 | 52.34562 | -1.57984 | 2992 ft | 228 kts | 284° |
| 2026-05-05 17:23 | 52.34890 | -1.60476 | 2881 ft | 220 kts | 285° |
| 2026-05-05 17:23 | 52.35344 | -1.62800 | 2640 ft | 216 kts | 301° |
| 2026-05-05 17:23 | 52.36252 | -1.64640 | 2391 ft | 201 kts | 322° |
| 2026-05-05 17:23 | 52.37367 | -1.65916 | 2141 ft | 191 kts | 328° |
| 2026-05-05 17:24 | 52.38432 | -1.67093 | 1901 ft | 179 kts | 328° |
| 2026-05-05 17:24 | 52.39435 | -1.68203 | 1649 ft | 169 kts | 328° |
| 2026-05-05 17:24 | 52.40385 | -1.69255 | 1427 ft | 159 kts | 328° |
| 2026-05-05 17:24 | 52.41272 | -1.70238 | 1197 ft | 150 kts | 327° |
| 2026-05-05 17:25 | 52.42120 | -1.71178 | 1014 ft | 142 kts | 327° |
| 2026-05-05 17:25 | 52.42652 | -1.71768 | 852 ft | 137 kts | 327° |
| 2026-05-05 17:25 | 52.43680 | -1.72908 | 615 ft | 131 kts | 328° |
| 2026-05-05 17:25 | 52.44439 | -1.73753 | 407 ft | 132 kts | 328° |
| 2026-05-05 17:26 | 52.45166 | -1.74555 | 328 ft | 113 kts | 327° |
| 2026-05-05 17:26 | 52.45677 | -1.75124 | 323 ft | 65 kts | 326° |
| 2026-05-05 17:26 | 52.45970 | -1.75450 | 315 ft | 41 kts | 327° |
| 2026-05-05 17:26 | 52.46126 | -1.75612 | 311 ft | 16 kts | 0° |
| 2026-05-05 17:27 | 52.46209 | -1.75485 | 306 ft | 18 kts | 57° |
| 2026-05-05 17:27 | 52.46164 | -1.75339 | 303 ft | 13 kts | 144° |
| 2026-05-05 17:27 | 52.46095 | -1.75262 | 305 ft | 11 kts | 147° |
| 2026-05-05 17:27 | 52.46031 | -1.75192 | 308 ft | 13 kts | 146° |
| 2026-05-05 17:28 | 52.45948 | -1.75094 | 305 ft | 17 kts | 145° |
| 2026-05-05 17:28 | 52.45842 | -1.74978 | 309 ft | 18 kts | 147° |
| 2026-05-05 17:28 | 52.45747 | -1.74878 | 310 ft | 14 kts | 146° |
| 2026-05-05 17:28 | 52.45679 | -1.74801 | 314 ft | 9 kts | 145° |
| 2026-05-05 17:29 | 52.45625 | -1.74740 | 318 ft | 12 kts | 145° |
| 2026-05-05 17:29 | 52.45555 | -1.74661 | 322 ft | 10 kts | 146° |
| 2026-05-05 17:29 | 52.45504 | -1.74604 | 323 ft | 10 kts | 146° |
| 2026-05-05 17:29 | 52.45443 | -1.74468 | 323 ft | 20 kts | 116° |
| 2026-05-05 17:30 | 52.45381 | -1.74264 | 323 ft | 21 kts | 116° |
| 2026-05-05 17:30 | 52.45316 | -1.74055 | 323 ft | 19 kts | 116° |
| 2026-05-05 17:30 | 52.45341 | -1.73910 | 323 ft | 14 kts | 54° |
| 2026-05-05 17:30 | 52.45312 | -1.73819 | 322 ft | 7 kts | 147° |
| 2026-05-05 17:31 | 52.45297 | -1.73803 | 322 ft | 1 kts | 146° |
| 2026-05-05 17:31 | 52.45296 | -1.73802 | 322 ft | 0 kts | 146° |